Time;durP1;ratioP1;P1;durP2;ratioP2;P2;SDS_P1;SDS_P2;PMS_P1;PMS_P2;Temp;Humidity;BMP_temperature;BMP_pressure;BME280_temperature;BME280_humidity;BME280_pressure;Samples;Min_cycle;Max_cycle;Signal;HPM_P1;HPM_P2
2022/06/19 00:02:25;;;;;;;6.55;1.30;;;15.60;99.90;;;;;;5052990;28;20459;-64
2022/06/19 00:04:54;;;;;;;8.13;1.30;;;15.60;99.90;;;;;;5052584;28;20051;-63
2022/06/19 00:07:21;;;;;;;5.38;1.65;;;15.70;99.90;;;;;;5052808;28;20032;-67
2022/06/19 00:09:47;;;;;;;5.60;0.95;;;15.70;99.90;;;;;;5052674;28;20040;-67
2022/06/19 00:12:14;;;;;;;9.63;1.70;;;15.80;99.90;;;;;;5052592;28;20020;-63
2022/06/19 00:14:40;;;;;;;8.80;1.65;;;15.80;99.90;;;;;;5052983;28;20025;-63
2022/06/19 00:17:06;;;;;;;8.98;1.17;;;15.90;99.90;;;;;;5052842;28;20371;-64
2022/06/19 00:19:33;;;;;;;4.82;1.17;;;15.90;99.90;;;;;;5051629;28;20481;-66
2022/06/19 00:21:59;;;;;;;8.60;1.48;;;15.90;99.90;;;;;;5052774;28;20025;-64
2022/06/19 00:24:25;;;;;;;8.38;1.45;;;16.00;99.90;;;;;;5052553;28;20359;-68
2022/06/19 00:26:51;;;;;;;10.95;1.40;;;16.00;99.90;;;;;;5051786;28;20131;-65
2022/06/19 00:29:17;;;;;;;14.48;1.90;;;16.10;99.90;;;;;;5055917;28;20051;-67
2022/06/19 00:31:42;;;;;;;7.25;1.63;;;16.10;99.90;;;;;;5056406;28;20581;-63
2022/06/19 00:34:08;;;;;;;6.32;1.50;;;16.20;99.90;;;;;;5054176;28;20033;-64
2022/06/19 00:36:34;;;;;;;6.72;1.10;;;16.10;99.90;;;;;;5053782;28;20037;-63
2022/06/19 00:39:00;;;;;;;8.43;1.45;;;16.10;99.90;;;;;;5055502;28;20024;-63
2022/06/19 00:41:33;;;;;;;3.53;0.70;;;16.10;99.90;;;;;;5055225;28;20335;-63
2022/06/19 00:44:04;;;;;;;6.00;0.98;;;16.10;99.90;;;;;;5055068;28;20409;-67
2022/06/19 00:46:50;;;;;;;5.50;1.00;;;16.10;99.90;;;;;;5054847;28;20029;-67
2022/06/19 00:49:45;;;;;;;5.72;0.90;;;16.00;99.90;;;;;;5054943;28;20086;-63
2022/06/19 00:52:20;;;;;;;7.90;1.50;;;16.00;99.90;;;;;;5053959;28;20035;-64
2022/06/19 00:54:50;;;;;;;9.48;1.63;;;16.00;99.90;;;;;;5055247;28;20025;-66
2022/06/19 00:57:17;;;;;;;11.57;1.05;;;16.00;99.90;;;;;;5054774;28;20028;-64
2022/06/19 00:59:50;;;;;;;7.95;1.00;;;16.10;99.90;;;;;;5055051;28;20024;-64
2022/06/19 01:02:16;;;;;;;12.68;1.80;;;16.00;99.90;;;;;;5055026;28;20087;-63
2022/06/19 01:04:51;;;;;;;11.43;1.73;;;16.10;99.90;;;;;;5055226;28;20389;-64
2022/06/19 01:07:21;;;;;;;8.98;2.00;;;16.10;99.90;;;;;;5054841;28;20028;-64
2022/06/19 01:09:47;;;;;;;11.85;1.58;;;16.20;99.90;;;;;;5054735;28;20028;-64
2022/06/19 01:12:13;;;;;;;7.18;0.82;;;16.20;99.90;;;;;;5054087;28;20086;-68
2022/06/19 01:14:41;;;;;;;10.25;1.98;;;16.20;99.90;;;;;;5054665;28;20032;-63
2022/06/19 01:17:08;;;;;;;12.25;3.00;;;16.20;99.90;;;;;;5054821;28;20464;-65
2022/06/19 01:19:41;;;;;;;6.60;1.65;;;16.20;99.90;;;;;;5052694;28;20017;-65
2022/06/19 01:22:15;;;;;;;8.80;1.58;;;16.20;99.90;;;;;;5054744;28;20067;-66
2022/06/19 01:24:50;;;;;;;8.88;1.50;;;16.30;99.90;;;;;;5054248;28;20134;-64
2022/06/19 01:30:01;;;;;;;13.38;1.75;;;16.20;99.90;;;;;;5054062;28;20091;-67
2022/06/19 01:32:27;;;;;;;14.23;1.42;;;16.10;99.90;;;;;;5017168;28;1086372;-64
2022/06/19 01:34:53;;;;;;;11.43;1.50;;;16.20;99.90;;;;;;5055600;28;20035;-64
2022/06/19 01:37:24;;;;;;;7.68;1.70;;;16.10;99.90;;;;;;5055355;28;20104;-63
2022/06/19 01:40:05;;;;;;;7.22;1.40;;;16.10;99.90;;;;;;5054085;28;20025;-63
2022/06/19 01:42:31;;;;;;;14.27;2.88;;;16.10;99.90;;;;;;5055434;28;20021;-65
2022/06/19 01:44:57;;;;;;;7.45;1.55;;;16.00;99.90;;;;;;5055224;28;20021;-68
2022/06/19 01:47:24;;;;;;;12.57;1.52;;;16.00;99.90;;;;;;5054716;28;20412;-63
2022/06/19 01:49:52;;;;;;;6.45;1.30;;;16.00;99.90;;;;;;5054766;28;20355;-63
2022/06/19 01:52:18;;;;;;;5.18;1.52;;;15.90;99.90;;;;;;5055227;28;20066;-64
2022/06/19 01:54:52;;;;;;;11.35;1.15;;;15.90;99.90;;;;;;5054859;28;20135;-64
2022/06/19 01:57:19;;;;;;;7.25;1.10;;;15.90;99.90;;;;;;5055007;28;20045;-66
2022/06/19 01:59:45;;;;;;;12.35;1.70;;;15.90;99.90;;;;;;5055187;28;20159;-64
2022/06/19 02:02:13;;;;;;;9.38;1.90;;;15.90;99.60;;;;;;5055054;28;20017;-65
2022/06/19 02:04:40;;;;;;;9.77;1.33;;;15.90;99.30;;;;;;5055200;28;20108;-65
2022/06/19 02:07:16;;;;;;;13.15;1.80;;;16.00;99.00;;;;;;5054393;28;20024;-66
2022/06/19 02:09:41;;;;;;;7.60;1.30;;;16.10;98.30;;;;;;5054595;28;20454;-64
2022/06/19 02:12:08;;;;;;;8.45;1.23;;;16.10;96.90;;;;;;5054920;28;20023;-64
2022/06/19 02:14:34;;;;;;;9.73;1.48;;;16.10;96.70;;;;;;5054717;28;20514;-64
2022/06/19 02:17:08;;;;;;;7.45;1.00;;;16.10;97.20;;;;;;5055172;28;20124;-66
2022/06/19 02:19:34;;;;;;;8.00;1.20;;;16.10;97.70;;;;;;5054451;28;20400;-64
2022/06/19 02:21:59;;;;;;;10.95;1.23;;;16.00;98.00;;;;;;5054666;28;20020;-63
2022/06/19 02:24:27;;;;;;;5.55;1.42;;;16.00;98.10;;;;;;5054605;28;20066;-66
2022/06/19 02:26:54;;;;;;;8.07;1.58;;;16.00;98.30;;;;;;5053965;28;20394;-68
2022/06/19 02:29:21;;;;;;;11.73;1.83;;;16.00;98.30;;;;;;5053922;28;20389;-63
2022/06/19 02:31:51;;;;;;;7.85;1.42;;;16.10;98.70;;;;;;5054155;28;20044;-65
2022/06/19 02:34:32;;;;;;;8.18;1.58;;;16.10;98.20;;;;;;5052899;28;20025;-63
2022/06/19 02:37:03;;;;;;;19.23;2.78;;;16.10;99.00;;;;;;5054553;28;20024;-66
2022/06/19 02:39:28;;;;;;;25.05;3.65;;;15.90;99.90;;;;;;5054158;28;20017;-66
2022/06/19 02:42:03;;;;;;;17.77;2.67;;;15.20;99.90;;;;;;5054037;28;20092;-65
2022/06/19 02:44:38;;;;;;;15.15;2.25;;;14.60;99.90;;;;;;5054249;28;20023;-69
2022/06/19 02:47:05;;;;;;;18.88;2.70;;;14.20;99.90;;;;;;5054236;28;20045;-65
2022/06/19 02:49:30;;;;;;;11.77;2.45;;;13.90;99.90;;;;;;5054027;28;20025;-65
2022/06/19 02:51:56;;;;;;;13.77;2.30;;;13.60;99.90;;;;;;5053494;28;20031;-66
2022/06/19 02:54:22;;;;;;;13.73;2.10;;;13.40;99.90;;;;;;5054060;28;20017;-66
2022/06/19 02:56:47;;;;;;;8.40;1.42;;;13.20;99.90;;;;;;5054365;28;20025;-67
2022/06/19 02:59:13;;;;;;;13.35;2.10;;;13.00;99.90;;;;;;5053213;28;20100;-69
2022/06/19 03:01:39;;;;;;;13.15;1.83;;;12.90;99.90;;;;;;5054187;28;20336;-66
2022/06/19 03:04:05;;;;;;;14.75;3.97;;;12.80;99.90;;;;;;5053620;28;20131;-67
2022/06/19 03:06:31;;;;;;;13.40;2.47;;;12.70;99.90;;;;;;5053970;28;20473;-68
2022/06/19 03:08:56;;;;;;;13.80;2.58;;;12.60;99.90;;;;;;5052321;28;20036;-65
2022/06/19 03:11:22;;;;;;;13.07;2.15;;;12.60;99.90;;;;;;5053598;28;20045;-66
2022/06/19 03:13:49;;;;;;;11.85;2.35;;;12.50;99.90;;;;;;5053464;28;20033;-66
2022/06/19 03:16:14;;;;;;;12.13;2.13;;;12.50;99.90;;;;;;5053967;28;20052;-68
2022/06/19 03:18:40;;;;;;;11.75;2.05;;;12.60;99.90;;;;;;5053843;28;20355;-65
2022/06/19 03:21:06;;;;;;;10.05;1.58;;;12.60;99.90;;;;;;5053546;28;20059;-68
2022/06/19 03:23:31;;;;;;;12.00;1.40;;;12.60;99.90;;;;;;5053784;28;20055;-65
2022/06/19 03:25:57;;;;;;;14.95;1.83;;;12.60;99.90;;;;;;5053558;28;20036;-68
2022/06/19 03:28:22;;;;;;;10.70;2.17;;;12.60;99.90;;;;;;5053469;28;20028;-65
2022/06/19 03:30:53;;;;;;;10.30;1.63;;;12.60;99.90;;;;;;5053078;28;20347;-65
2022/06/19 03:33:19;;;;;;;11.45;1.85;;;12.70;99.90;;;;;;5053690;28;20013;-66
2022/06/19 03:35:45;;;;;;;9.18;1.90;;;12.70;99.90;;;;;;5052020;28;20070;-65
2022/06/19 03:38:10;;;;;;;13.98;1.92;;;12.70;99.90;;;;;;5051954;28;20036;-65
2022/06/19 03:40:36;;;;;;;8.95;1.92;;;12.70;99.90;;;;;;5053523;28;20358;-65
2022/06/19 03:43:01;;;;;;;10.18;1.55;;;12.80;99.90;;;;;;5053403;28;20071;-67
2022/06/19 03:45:27;;;;;;;15.60;1.73;;;12.90;99.90;;;;;;5052980;28;20091;-66
2022/06/19 03:47:52;;;;;;;16.17;2.35;;;12.90;99.90;;;;;;5052199;28;20028;-65
2022/06/19 03:50:18;;;;;;;10.23;1.52;;;13.00;99.90;;;;;;5052596;28;20025;-65
2022/06/19 03:52:44;;;;;;;15.45;1.80;;;13.00;99.90;;;;;;5052863;28;20025;-66
2022/06/19 03:55:10;;;;;;;18.02;2.30;;;13.00;99.90;;;;;;5051830;28;20439;-64
2022/06/19 03:57:35;;;;;;;10.75;2.08;;;13.00;99.90;;;;;;5053279;28;20021;-67
2022/06/19 04:00:01;;;;;;;10.13;2.10;;;12.90;99.90;;;;;;5053175;28;20048;-65
2022/06/19 04:02:26;;;;;;;10.88;2.03;;;12.90;99.90;;;;;;5053124;28;20028;-69
2022/06/19 04:04:52;;;;;;;11.30;1.67;;;12.90;99.90;;;;;;5052782;28;20489;-66
2022/06/19 04:07:17;;;;;;;13.07;1.95;;;12.80;99.90;;;;;;5051121;28;20025;-66
2022/06/19 04:09:44;;;;;;;12.50;1.60;;;12.70;99.90;;;;;;5052749;28;20048;-69
2022/06/19 04:12:10;;;;;;;10.95;2.08;;;12.70;99.90;;;;;;5052712;28;20105;-66
2022/06/19 04:14:36;;;;;;;14.05;2.00;;;12.60;99.90;;;;;;5053150;28;20028;-66
2022/06/19 04:17:03;;;;;;;13.07;2.17;;;12.60;99.90;;;;;;5053265;28;20082;-66
2022/06/19 04:19:29;;;;;;;14.15;2.00;;;12.60;99.90;;;;;;5052746;28;20017;-68
2022/06/19 04:21:55;;;;;;;13.77;2.05;;;12.60;99.90;;;;;;5052613;28;20572;-69
2022/06/19 04:24:21;;;;;;;6.75;1.60;;;12.60;99.90;;;;;;5052849;28;20025;-67
2022/06/19 04:26:46;;;;;;;11.48;2.33;;;12.60;99.90;;;;;;5052893;28;20021;-66
2022/06/19 04:29:13;;;;;;;8.52;1.48;;;12.70;99.90;;;;;;5052547;28;20070;-66
2022/06/19 04:31:39;;;;;;;12.52;1.85;;;12.70;99.90;;;;;;5052836;28;20045;-67
2022/06/19 04:34:04;;;;;;;11.43;1.98;;;12.70;99.90;;;;;;5052506;28;20021;-69
2022/06/19 04:36:31;;;;;;;15.38;1.95;;;12.80;99.90;;;;;;5052635;28;20029;-66
2022/06/19 04:38:57;;;;;;;12.88;2.10;;;12.80;99.90;;;;;;5052926;28;20056;-69
2022/06/19 04:41:29;;;;;;;10.18;2.40;;;12.80;99.90;;;;;;5052843;28;20025;-66
2022/06/19 04:43:57;;;;;;;11.70;2.25;;;12.80;99.90;;;;;;5052928;28;20443;-67
2022/06/19 04:46:23;;;;;;;8.75;1.85;;;12.90;99.90;;;;;;5051342;28;20025;-67
2022/06/19 04:48:49;;;;;;;10.05;2.15;;;12.90;99.90;;;;;;5051057;28;20036;-67
2022/06/19 04:51:16;;;;;;;12.63;2.15;;;13.00;99.90;;;;;;5052568;28;20108;-66
2022/06/19 04:53:42;;;;;;;11.27;2.00;;;13.00;99.90;;;;;;5052458;28;20075;-66
2022/06/19 04:56:09;;;;;;;12.38;2.30;;;13.10;99.90;;;;;;5052681;28;20070;-65
2022/06/19 04:58:35;;;;;;;11.65;2.08;;;13.10;99.90;;;;;;5052513;28;20021;-67
2022/06/19 05:01:03;;;;;;;12.63;2.22;;;13.20;99.90;;;;;;5052619;28;20031;-68
2022/06/19 05:03:29;;;;;;;11.05;1.77;;;13.20;99.90;;;;;;5052735;28;20063;-65
2022/06/19 05:05:55;;;;;;;19.75;4.07;;;13.30;99.90;;;;;;5052518;28;20056;-66
2022/06/19 05:08:21;;;;;;;16.98;2.60;;;13.30;99.90;;;;;;5052600;28;20446;-68
2022/06/19 05:10:48;;;;;;;13.07;2.10;;;13.40;99.90;;;;;;5052455;28;20029;-66
2022/06/19 05:13:19;;;;;;;13.15;2.25;;;13.50;99.90;;;;;;5051328;28;20382;-63
2022/06/19 05:15:45;;;;;;;16.88;2.17;;;13.40;99.90;;;;;;5056199;28;20025;-65
2022/06/19 05:18:11;;;;;;;13.88;1.92;;;13.50;99.90;;;;;;5056238;28;20029;-65
2022/06/19 05:20:37;;;;;;;20.08;2.67;;;13.60;99.90;;;;;;5056116;28;20035;-65
2022/06/19 05:23:04;;;;;;;12.65;2.42;;;13.50;99.90;;;;;;5056002;28;20049;-64
2022/06/19 05:25:29;;;;;;;12.13;2.10;;;13.60;99.90;;;;;;5056092;28;20049;-67
2022/06/19 05:27:55;;;;;;;10.57;1.83;;;13.60;99.90;;;;;;5055978;28;20102;-65
2022/06/19 05:30:21;;;;;;;11.85;1.88;;;13.60;99.90;;;;;;5055420;28;20033;-64
2022/06/19 05:32:46;;;;;;;11.02;1.58;;;13.60;99.90;;;;;;5055693;28;20095;-66
2022/06/19 05:35:12;;;;;;;7.82;2.00;;;13.60;99.90;;;;;;5056060;28;20021;-65
2022/06/19 05:37:38;;;;;;;9.38;1.85;;;13.60;99.90;;;;;;5054574;28;20021;-64
2022/06/19 05:40:04;;;;;;;14.02;1.77;;;13.60;99.90;;;;;;5055778;28;20454;-65
2022/06/19 05:42:30;;;;;;;8.75;1.45;;;13.60;99.90;;;;;;5055744;28;20025;-67
2022/06/19 05:44:55;;;;;;;8.00;1.70;;;13.60;99.90;;;;;;5055701;28;20029;-65
2022/06/19 05:47:21;;;;;;;8.70;1.50;;;13.70;99.90;;;;;;5055614;28;20466;-65
2022/06/19 05:49:47;;;;;;;9.85;1.98;;;13.70;99.90;;;;;;5054502;28;20029;-66
2022/06/19 05:52:19;;;;;;;6.57;1.60;;;13.70;99.90;;;;;;5055872;28;20021;-66
2022/06/19 05:54:45;;;;;;;;;;;13.70;99.90;;;;;;5056222;28;20028;-66
2022/06/19 05:57:10;;;;;;;10.95;1.60;;;13.80;99.90;;;;;;5055784;28;19901;-63
2022/06/19 05:59:36;;;;;;;10.35;2.08;;;13.80;99.90;;;;;;5055742;28;20131;-65
2022/06/19 06:02:02;;;;;;;13.48;2.15;;;13.80;99.90;;;;;;5055381;28;20017;-66
2022/06/19 06:04:27;;;;;;;11.02;2.10;;;13.80;99.90;;;;;;5055627;28;20438;-64
2022/06/19 06:06:53;;;;;;;7.07;1.55;;;13.90;99.90;;;;;;5055235;28;20035;-67
2022/06/19 06:09:19;;;;;;;13.65;2.10;;;14.00;99.90;;;;;;5055258;28;20029;-64
2022/06/19 06:11:45;;;;;;;11.40;2.03;;;14.00;99.90;;;;;;5055143;28;20458;-65
2022/06/19 06:14:11;;;;;;;8.65;1.70;;;14.00;99.90;;;;;;5055272;28;20051;-64
2022/06/19 06:16:36;;;;;;;12.77;2.40;;;14.00;99.90;;;;;;5055046;28;20025;-65
2022/06/19 06:19:02;;;;;;;16.63;3.80;;;14.10;99.90;;;;;;5055576;28;20021;-67
2022/06/19 06:21:28;;;;;;;10.55;2.25;;;14.20;99.90;;;;;;5053574;28;20025;-65
2022/06/19 06:23:54;;;;;;;12.65;2.05;;;14.30;99.90;;;;;;5055496;28;20530;-65
2022/06/19 06:26:26;;;;;;;17.48;2.50;;;14.40;99.90;;;;;;5053700;28;20024;-65
2022/06/19 06:28:52;;;;;;;20.40;2.53;;;14.40;99.90;;;;;;5055096;28;20017;-66
2022/06/19 06:31:19;;;;;;;13.57;2.28;;;14.50;99.90;;;;;;5054812;28;20537;-64
2022/06/19 06:33:46;;;;;;;11.32;2.05;;;14.40;99.90;;;;;;5053505;28;20025;-68
2022/06/19 06:36:12;;;;;;;10.90;2.42;;;14.50;99.90;;;;;;5054771;28;20040;-68
2022/06/19 06:38:38;;;;;;;13.20;2.88;;;14.50;99.90;;;;;;5054799;28;20489;-65
2022/06/19 06:41:05;;;;;;;9.07;2.15;;;14.60;99.90;;;;;;5054408;28;20029;-65
2022/06/19 06:43:31;;;;;;;11.70;2.70;;;14.60;99.90;;;;;;5054296;28;20379;-68
2022/06/19 06:46:07;;;;;;;16.23;2.60;;;14.70;99.90;;;;;;5054509;28;20052;-65
2022/06/19 06:48:33;;;;;;;13.50;2.25;;;14.70;99.90;;;;;;5054619;28;20468;-65
2022/06/19 06:50:59;;;;;;;11.13;2.38;;;14.80;99.90;;;;;;5054903;28;20086;-66
2022/06/19 06:53:25;;;;;;;15.80;1.95;;;14.90;99.90;;;;;;5054491;28;20025;-67
2022/06/19 06:55:56;;;;;;;12.80;1.83;;;15.00;99.90;;;;;;5054390;28;20017;-66
2022/06/19 06:58:21;;;;;;;13.60;2.97;;;15.10;99.90;;;;;;5054461;28;20410;-65
2022/06/19 07:00:47;;;;;;;15.13;2.47;;;15.30;99.90;;;;;;5052949;28;20033;-66
2022/06/19 07:03:12;;;;;;;13.40;2.22;;;15.30;99.90;;;;;;5054305;28;20025;-65
2022/06/19 07:05:38;;;;;;;14.95;3.78;;;15.40;99.90;;;;;;5054048;28;20023;-68
2022/06/19 07:08:05;;;;;;;15.02;2.00;;;15.40;99.90;;;;;;5054236;28;20021;-67
2022/06/19 07:10:31;;;;;;;15.38;2.88;;;15.50;99.90;;;;;;5053708;28;20025;-64
2022/06/19 07:12:56;;;;;;;10.13;2.08;;;15.60;99.90;;;;;;5053894;28;20055;-65
2022/06/19 07:15:22;;;;;;;16.27;2.28;;;15.70;99.90;;;;;;5052705;28;20017;-65
2022/06/19 07:17:48;;;;;;;11.23;1.83;;;15.80;99.90;;;;;;5054047;28;20036;-65
2022/06/19 07:20:13;;;;;;;13.35;2.63;;;15.90;99.90;;;;;;5053818;28;20028;-66
2022/06/19 07:22:39;;;;;;;13.50;2.13;;;16.00;99.90;;;;;;5053660;28;20025;-66
2022/06/19 07:25:06;;;;;;;13.80;2.90;;;16.00;99.90;;;;;;5053987;28;20036;-67
2022/06/19 07:27:31;;;;;;;17.50;2.85;;;16.00;99.90;;;;;;5053928;28;20017;-65
2022/06/19 07:29:57;;;;;;;19.17;2.97;;;16.00;99.90;;;;;;5053671;28;20047;-69
2022/06/19 07:32:22;;;;;;;21.15;3.70;;;16.00;99.90;;;;;;5053734;28;20045;-66
2022/06/19 07:34:48;;;;;;;16.92;2.80;;;16.00;99.90;;;;;;5052188;28;20021;-67
2022/06/19 07:37:15;;;;;;;15.90;2.83;;;16.00;99.90;;;;;;5053195;28;20028;-69
2022/06/19 07:39:41;;;;;;;13.00;2.50;;;16.00;99.90;;;;;;5053611;28;20517;-64
2022/06/19 07:42:10;;;;;;;12.68;2.85;;;16.10;99.90;;;;;;5053607;28;20021;-67
2022/06/19 07:44:39;;;;;;;13.00;2.05;;;16.10;99.90;;;;;;5053601;28;20021;-65
2022/06/19 07:50:15;;;;;;;12.02;2.47;;;16.20;99.90;;;;;;5053339;28;20028;-67
2022/06/19 07:52:46;;;;;;;11.35;2.38;;;16.10;99.90;;;;;;5053876;28;20031;-67
2022/06/19 07:55:21;;;;;;;9.93;2.03;;;16.00;99.90;;;;;;5053676;28;20025;-66
2022/06/19 07:57:47;;;;;;;11.20;2.25;;;15.90;99.90;;;;;;5052132;28;20020;-64
2022/06/19 08:00:17;;;;;;;17.58;2.30;;;15.80;99.90;;;;;;5053481;28;20025;-66
2022/06/19 08:02:46;;;;;;;12.10;1.75;;;15.80;99.90;;;;;;5053374;28;20021;-66
2022/06/19 08:05:12;;;;;;;9.48;2.17;;;15.70;99.90;;;;;;5053374;28;20462;-66
2022/06/19 08:07:40;;;;;;;9.55;2.22;;;15.70;99.90;;;;;;5053605;28;20025;-65
2022/06/19 08:10:07;;;;;;;15.13;1.98;;;15.60;99.90;;;;;;5053173;28;20025;-65
2022/06/19 08:12:32;;;;;;;5.70;1.80;;;15.70;99.90;;;;;;5053363;28;20021;-65
2022/06/19 08:14:58;;;;;;;3.55;1.20;;;15.80;99.90;;;;;;5051689;28;20420;-65
2022/06/19 08:17:23;;;;;;;8.45;1.73;;;16.00;99.90;;;;;;5053012;28;20021;-65
2022/06/19 08:19:49;;;;;;;8.35;1.23;;;16.10;99.90;;;;;;5052834;28;20024;-65
2022/06/19 08:22:14;;;;;;;12.50;2.30;;;16.40;99.90;;;;;;5052954;28;20021;-63
2022/06/19 08:24:40;;;;;;;8.90;1.70;;;16.80;99.90;;;;;;5053064;28;20020;-64
2022/06/19 08:27:06;;;;;;;9.20;2.47;;;17.20;99.90;;;;;;5053192;28;20021;-68
2022/06/19 08:29:33;;;;;;;9.93;1.75;;;17.50;99.90;;;;;;5052926;28;20025;-65
2022/06/19 08:31:58;;;;;;;10.75;1.83;;;17.60;99.90;;;;;;5052719;28;20083;-65
2022/06/19 08:34:26;;;;;;;3.88;1.35;;;17.70;99.90;;;;;;5052787;28;20056;-65
2022/06/19 08:36:51;;;;;;;8.43;1.02;;;17.80;99.90;;;;;;5053027;28;20110;-65
2022/06/19 08:39:19;;;;;;;6.43;1.70;;;17.70;99.90;;;;;;5053182;28;20191;-66
2022/06/19 08:42:02;;;;;;;7.53;1.98;;;17.70;99.90;;;;;;5052851;28;20430;-66
2022/06/19 08:44:55;;;;;;;7.82;1.50;;;17.90;99.90;;;;;;5052836;28;20063;-64
2022/06/19 08:47:36;;;;;;;5.57;1.30;;;18.00;99.90;;;;;;5052596;28;20099;-67
2022/06/19 08:50:43;;;;;;;6.75;1.85;;;18.00;99.90;;;;;;5055304;28;20025;-66
2022/06/19 08:53:30;;;;;;;6.78;0.90;;;17.80;99.90;;;;;;4984918;28;20117;-67
2022/06/19 08:56:22;;;;;;;4.97;1.50;;;17.60;99.90;;;;;;5056542;28;20075;-64
2022/06/19 08:59:01;;;;;;;10.70;2.75;;;17.50;99.90;;;;;;5054865;28;20381;-64
2022/06/19 09:01:42;;;;;;;7.40;1.50;;;17.50;99.90;;;;;;5056423;28;20025;-64
2022/06/19 09:07:15;;;;;;;8.82;1.83;;;17.70;99.90;;;;;;5056624;28;20074;-65
2022/06/19 09:10:12;;;;;;;7.88;2.35;;;17.70;99.90;;;;;;5056137;28;20059;-65
2022/06/19 09:12:55;;;;;;;3.40;1.10;;;17.80;99.90;;;;;;5056149;28;20039;-66
2022/06/19 09:15:35;;;;;;;4.55;1.40;;;17.70;99.90;;;;;;5056246;28;20017;-64
2022/06/19 09:18:06;;;;;;;3.42;1.15;;;17.70;99.90;;;;;;5056401;28;20025;-65
2022/06/19 09:20:53;;;;;;;7.27;1.27;;;17.70;99.90;;;;;;5056270;28;20025;-68
2022/06/19 09:23:37;;;;;;;3.83;1.15;;;17.90;99.90;;;;;;5056551;28;20277;-64
2022/06/19 09:26:12;;;;;;;1.90;0.80;;;18.00;99.90;;;;;;5073528;28;20036;-68
2022/06/19 09:28:46;;;;;;;3.08;0.85;;;18.10;99.90;;;;;;5056076;28;20106;-65
2022/06/19 09:31:29;;;;;;;4.18;0.90;;;18.20;99.90;;;;;;5064385;28;20359;-65
2022/06/19 09:34:08;;;;;;;;;;;18.30;99.90;;;;;;5075972;28;20031;-64
2022/06/19 09:36:43;;;;;;;6.60;1.08;;;18.30;99.90;;;;;;5075971;28;19900;-65
2022/06/19 09:39:27;;;;;;;6.45;1.10;;;18.40;99.90;;;;;;5071754;28;20025;-64
2022/06/19 09:42:09;;;;;;;5.85;1.70;;;18.70;99.90;;;;;;5055732;28;20100;-65
2022/06/19 09:45:08;;;;;;;2.75;0.90;;;19.20;99.90;;;;;;5055492;28;20070;-65
2022/06/19 09:47:52;;;;;;;5.28;1.33;;;19.50;99.90;;;;;;5055747;28;20025;-65
2022/06/19 09:50:27;;;;;;;6.55;1.25;;;19.70;99.90;;;;;;5055842;28;20536;-65
2022/06/19 09:52:56;;;;;;;3.25;0.82;;;20.00;99.90;;;;;;5055714;28;20023;-68
2022/06/19 09:55:35;;;;;;;4.88;0.90;;;20.30;99.20;;;;;;5055279;28;20068;-65
2022/06/19 09:58:14;;;;;;;4.07;0.95;;;20.40;98.60;;;;;;5074284;28;20021;-65
2022/06/19 10:00:43;;;;;;;1.83;1.00;;;20.70;98.20;;;;;;5074919;28;20025;-65
2022/06/19 10:03:18;;;;;;;6.57;1.30;;;20.80;97.50;;;;;;5075527;28;20027;-68
2022/06/19 10:05:46;;;;;;;7.53;1.33;;;20.80;97.70;;;;;;5075312;28;20108;-65
2022/06/19 10:08:20;;;;;;;4.95;1.42;;;20.80;97.30;;;;;;5075517;28;20095;-64
2022/06/19 10:10:52;;;;;;;3.20;1.10;;;21.00;97.30;;;;;;5075054;28;20067;-64
2022/06/19 10:14:04;;;;;;;9.60;2.67;;;21.00;96.90;;;;;;5075307;28;20020;-63
2022/06/19 10:16:48;;;;;;;2.73;1.10;;;21.00;97.00;;;;;;5013567;28;20124;-66
2022/06/19 10:19:24;;;;;;;3.35;0.90;;;21.10;95.90;;;;;;5074876;28;20039;-64
2022/06/19 10:24:54;;;;;;;5.85;1.02;;;21.70;95.40;;;;;;5074665;28;20058;-64
2022/06/19 10:27:38;;;;;;;7.53;1.60;;;22.20;94.80;;;;;;5075068;28;20025;-64
2022/06/19 10:30:22;;;;;;;6.15;1.20;;;23.00;94.00;;;;;;5073501;28;20100;-67
2022/06/19 10:33:09;;;;;;;4.05;1.65;;;23.30;92.50;;;;;;5054972;28;20051;-66
2022/06/19 10:35:48;;;;;;;1.92;1.00;;;23.40;92.00;;;;;;5054931;28;20020;-67
2022/06/19 10:38:25;;;;;;;3.08;1.02;;;23.30;91.50;;;;;;5054747;28;20374;-65
2022/06/19 10:44:12;;;;;;;5.40;1.10;;;22.80;92.30;;;;;;5054449;28;20021;-65
2022/06/19 10:46:40;;;;;;;8.43;1.58;;;22.50;92.30;;;;;;5054666;28;20029;-65
2022/06/19 10:49:32;;;;;;;5.97;2.03;;;22.20;92.90;;;;;;5054228;28;20021;-65
2022/06/19 10:52:12;;;;;;;6.47;1.80;;;22.00;93.30;;;;;;5059954;28;20263;-65
2022/06/19 10:55:20;;;;;;;6.20;1.40;;;21.90;94.20;;;;;;5052825;28;20746;-65
2022/06/19 10:57:50;;;;;;;7.03;2.28;;;21.80;93.60;;;;;;5045405;28;20044;-65
2022/06/19 11:00:16;;;;;;;7.28;1.45;;;21.30;94.10;;;;;;5052965;28;20443;-66
2022/06/19 11:05:52;;;;;;;8.60;1.70;;;21.30;94.60;;;;;;5053747;28;20035;-67
2022/06/19 11:08:21;;;;;;;8.90;2.15;;;21.80;94.60;;;;;;5053741;28;20537;-63
2022/06/19 11:10:52;;;;;;;8.32;1.73;;;22.20;94.30;;;;;;5054168;28;20028;-67
2022/06/19 11:13:18;;;;;;;6.30;1.35;;;22.40;93.30;;;;;;5053535;28;20130;-65
2022/06/19 11:16:04;;;;;;;7.13;1.70;;;22.40;93.30;;;;;;5054042;28;20024;-64
2022/06/19 11:18:43;;;;;;;7.07;2.22;;;22.50;93.10;;;;;;5053884;28;20021;-64
2022/06/19 11:21:15;;;;;;;10.57;1.90;;;22.90;92.80;;;;;;5053916;28;20029;-64
2022/06/19 11:23:52;;;;;;;10.40;1.60;;;23.40;92.70;;;;;;5053423;28;20021;-66
2022/06/19 11:26:22;;;;;;;13.27;2.08;;;24.70;91.20;;;;;;5052391;28;20025;-65
2022/06/19 11:28:54;;;;;;;10.48;2.25;;;25.60;88.80;;;;;;5053414;28;20036;-65
2022/06/19 11:31:24;;;;;;;8.48;2.10;;;26.40;87.90;;;;;;5051856;28;20048;-64
2022/06/19 11:33:54;;;;;;;7.93;2.55;;;26.30;86.60;;;;;;5053569;28;20486;-65
2022/06/19 11:36:32;;;;;;;6.53;1.60;;;26.10;86.80;;;;;;5053713;28;20021;-65
2022/06/19 11:38:58;;;;;;;10.00;2.20;;;26.10;87.30;;;;;;5053623;28;20067;-64
2022/06/19 11:41:24;;;;;;;4.57;1.58;;;26.40;87.00;;;;;;5052889;28;20382;-65
2022/06/19 11:44:11;;;;;;;7.15;1.95;;;26.50;83.40;;;;;;5053499;28;20016;-66
2022/06/19 11:46:57;;;;;;;6.60;1.45;;;26.50;84.50;;;;;;5053269;28;20475;-65
2022/06/19 11:49:36;;;;;;;6.07;1.83;;;26.10;85.70;;;;;;5052880;28;20119;-63
2022/06/19 11:52:16;;;;;;;11.43;2.60;;;26.40;85.00;;;;;;5052477;28;20127;-65
2022/06/19 11:54:46;;;;;;;9.50;1.90;;;26.60;85.00;;;;;;5053427;28;20029;-64
2022/06/19 11:57:38;;;;;;;4.90;1.33;;;26.90;86.10;;;;;;5053476;28;20522;-64
2022/06/19 12:00:05;;;;;;;8.98;2.42;;;27.10;82.70;;;;;;5050421;28;20033;-65
2022/06/19 12:02:38;;;;;;;10.20;1.98;;;26.80;84.90;;;;;;5053233;28;20029;-66
2022/06/19 12:05:19;;;;;;;11.07;2.03;;;26.90;84.40;;;;;;5052118;28;20406;-67
2022/06/19 12:07:45;;;;;;;10.98;2.15;;;27.60;84.10;;;;;;5053442;28;20021;-66
2022/06/19 12:10:14;;;;;;;13.18;2.35;;;28.20;82.10;;;;;;5053002;28;20100;-67
2022/06/19 12:12:50;;;;;;;8.38;2.25;;;28.90;80.70;;;;;;5052695;28;20553;-65
2022/06/19 12:15:28;;;;;;;10.57;2.30;;;29.10;79.20;;;;;;5053303;28;20502;-65
2022/06/19 12:18:03;;;;;;;8.75;1.90;;;29.20;78.70;;;;;;5052870;28;20459;-67
2022/06/19 12:20:33;;;;;;;9.65;2.97;;;29.20;78.20;;;;;;5053246;28;20079;-65
2022/06/19 12:23:16;;;;;;;7.65;2.00;;;29.10;78.50;;;;;;5053709;28;20071;-69
2022/06/19 12:25:53;;;;;;;11.05;2.20;;;29.10;76.90;;;;;;5055777;28;20036;-64
2022/06/19 12:28:40;;;;;;;18.40;2.40;;;29.80;76.90;;;;;;5056759;28;20016;-66
2022/06/19 12:31:13;;;;;;;11.05;2.15;;;30.40;75.00;;;;;;5056539;28;20075;-67
2022/06/19 12:33:44;;;;;;;15.48;2.20;;;30.80;74.30;;;;;;5057291;28;20056;-65
2022/06/19 12:36:19;;;;;;;8.93;2.00;;;31.20;73.20;;;;;;5057115;28;20502;-67
2022/06/19 12:38:46;;;;;;;9.45;1.77;;;31.60;72.20;;;;;;5057155;28;20025;-65
2022/06/19 12:41:32;;;;;;;9.68;2.05;;;31.80;70.40;;;;;;5056810;28;20121;-65
2022/06/19 12:44:08;;;;;;;10.27;2.15;;;31.50;71.00;;;;;;5056774;28;20039;-65
2022/06/19 12:46:57;;;;;;;7.60;1.92;;;31.10;70.50;;;;;;5057020;28;20025;-64
2022/06/19 12:50:04;;;;;;;7.15;2.03;;;30.50;70.20;;;;;;5056326;28;20037;-67
2022/06/19 12:52:45;;;;;;;7.72;1.73;;;29.50;71.80;;;;;;5056598;28;20417;-65
2022/06/19 12:55:52;;;;;;;6.88;1.60;;;28.80;72.30;;;;;;5056494;28;20032;-65
2022/06/19 12:58:42;;;;;;;10.20;1.67;;;28.30;73.00;;;;;;5056898;28;20021;-65
2022/06/19 13:01:53;;;;;;;6.13;1.90;;;27.80;73.90;;;;;;5056673;28;20029;-65
2022/06/19 13:04:39;;;;;;;9.97;1.67;;;27.40;75.50;;;;;;5056638;28;20103;-66
2022/06/19 13:07:26;;;;;;;5.40;1.83;;;27.20;75.70;;;;;;5056248;28;20028;-66
2022/06/19 13:10:01;;;;;;;13.73;2.58;;;27.00;74.60;;;;;;5085135;28;20017;-66
2022/06/19 13:13:07;;;;;;;9.55;1.83;;;26.60;75.50;;;;;;5054014;28;20107;-66
2022/06/19 13:15:56;;;;;;;8.70;2.08;;;26.30;76.90;;;;;;5054257;28;20386;-66
2022/06/19 13:18:29;;;;;;;8.23;2.33;;;26.10;77.30;;;;;;5034568;28;20017;-64
2022/06/19 13:21:00;;;;;;;8.45;1.98;;;26.00;77.10;;;;;;5034784;28;20025;-65
2022/06/19 13:23:38;;;;;;;6.70;1.85;;;26.00;77.40;;;;;;5034475;28;20109;-65